createdAt,value
2018-06-12T00:00:27.483Z,14.34
2018-06-12T00:02:55.173Z,12.21
2018-06-12T00:05:22.894Z,14.20
2018-06-12T00:07:50.563Z,14.46
2018-06-12T00:10:18.246Z,14.01
2018-06-12T00:12:45.950Z,14.10
2018-06-12T00:15:13.653Z,14.33
2018-06-12T00:17:41.354Z,14.29
2018-06-12T00:20:09.116Z,14.01
2018-06-12T00:22:36.842Z,13.90
2018-06-12T00:25:04.573Z,13.86
2018-06-12T00:27:32.332Z,14.10
2018-06-12T00:30:00.034Z,13.88
2018-06-12T00:32:27.809Z,13.71
2018-06-12T00:34:55.597Z,13.84
2018-06-12T00:37:23.352Z,13.92
2018-06-12T00:39:51.056Z,13.65
2018-06-12T00:42:18.788Z,13.43
2018-06-12T00:44:46.474Z,13.60
2018-06-12T00:47:14.158Z,13.66
2018-06-12T00:49:41.860Z,13.37
2018-06-12T00:52:09.599Z,13.37
2018-06-12T00:54:37.289Z,13.33
2018-06-12T00:57:07.125Z,13.37
2018-06-12T00:59:34.823Z,13.17
2018-06-12T01:02:02.803Z,13.17
2018-06-12T01:04:30.513Z,13.21
2018-06-12T01:06:58.212Z,13.24
2018-06-12T01:09:25.905Z,12.94
2018-06-12T01:11:53.635Z,13.09
2018-06-12T01:14:21.325Z,13.19
2018-06-12T01:16:49.001Z,13.19
2018-06-12T01:19:16.705Z,13.10
2018-06-12T01:21:44.422Z,13.12
2018-06-12T01:24:12.110Z,12.94
2018-06-12T01:26:39.842Z,12.79
2018-06-12T01:29:07.528Z,13.10
2018-06-12T01:31:35.235Z,12.75
2018-06-12T01:34:03.066Z,12.98
2018-06-12T01:36:30.798Z,13.19
2018-06-12T01:38:58.540Z,12.85
2018-06-12T01:41:26.405Z,12.81
2018-06-12T01:43:54.091Z,12.98
2018-06-12T01:46:21.758Z,12.74
2018-06-12T01:48:49.433Z,12.79
2018-06-12T01:51:17.125Z,12.57
2018-06-12T01:53:44.835Z,12.61
2018-06-12T01:56:12.574Z,12.55
2018-06-12T01:58:40.259Z,12.76
2018-06-12T02:01:07.953Z,12.73
2018-06-12T02:03:35.741Z,12.56
2018-06-12T02:06:03.457Z,12.44
2018-06-12T02:08:31.125Z,12.48
2018-06-12T02:10:58.849Z,12.69
2018-06-12T02:13:26.534Z,12.40
2018-06-12T02:15:54.210Z,12.28
2018-06-12T02:18:21.901Z,12.38
2018-06-12T02:20:49.607Z,12.26
2018-06-12T02:23:17.318Z,12.30
2018-06-12T02:25:45.059Z,12.35
2018-06-12T02:28:12.737Z,12.29
2018-06-12T02:30:40.436Z,12.49
2018-06-12T02:33:08.155Z,12.37
2018-06-12T02:35:35.854Z,12.34
2018-06-12T02:38:03.574Z,12.24
2018-06-12T02:40:31.267Z,12.16
2018-06-12T02:42:58.942Z,12.38
2018-06-12T02:45:26.622Z,12.42
2018-06-12T02:47:54.341Z,12.46
2018-06-12T02:50:22.001Z,12.61
2018-06-12T02:52:49.673Z,12.29
2018-06-12T02:55:17.390Z,12.28
2018-06-12T02:57:45.079Z,12.09
2018-06-12T03:00:12.748Z,12.25
2018-06-12T03:02:40.476Z,12.11
2018-06-12T03:05:08.167Z,12.21
2018-06-12T03:07:35.857Z,12.48
2018-06-12T03:10:03.662Z,12.31
2018-06-12T03:12:31.368Z,12.13
2018-06-12T03:14:59.074Z,12.18
2018-06-12T03:17:26.762Z,12.02
2018-06-12T03:19:54.444Z,11.97
2018-06-12T03:22:22.120Z,12.13
2018-06-12T03:24:49.852Z,12.13
2018-06-12T03:27:17.552Z,12.08
2018-06-12T03:29:45.226Z,12.02
2018-06-12T03:32:12.936Z,12.12
2018-06-12T03:34:40.928Z,12.16
2018-06-12T03:37:08.682Z,12.25
2018-06-12T03:39:36.382Z,12.41
2018-06-12T03:42:04.170Z,12.21
2018-06-12T03:44:31.843Z,11.92
2018-06-12T03:46:59.541Z,12.09
2018-06-12T03:49:27.230Z,11.93
2018-06-12T03:51:54.903Z,12.11
2018-06-12T03:54:22.597Z,10.57
2018-06-12T03:56:50.321Z,12.02
2018-06-12T03:59:17.985Z,11.90
2018-06-12T04:01:45.825Z,12.20
2018-06-12T04:04:13.495Z,12.22
2018-06-12T04:06:41.194Z,12.31
2018-06-12T04:09:09.051Z,12.39
2018-06-12T04:11:36.855Z,12.31
2018-06-12T04:14:04.566Z,13.06
2018-06-12T04:16:32.258Z,12.93
2018-06-12T04:18:59.933Z,12.51
2018-06-12T04:21:27.618Z,12.53
2018-06-12T04:23:55.334Z,12.45
2018-06-12T04:26:23.017Z,12.53
2018-06-12T04:28:50.701Z,12.74
2018-06-12T04:31:18.404Z,12.75
2018-06-12T04:33:46.096Z,12.56
2018-06-12T04:36:13.799Z,12.63
2018-06-12T04:38:41.526Z,12.68
2018-06-12T04:41:09.221Z,12.58
2018-06-12T04:43:36.907Z,12.68
2018-06-12T04:46:04.657Z,12.70
2018-06-12T04:48:32.363Z,12.58
2018-06-12T04:51:00.041Z,12.67
2018-06-12T04:53:27.753Z,12.67
2018-06-12T04:55:55.430Z,12.75
2018-06-12T04:58:23.155Z,12.70
2018-06-12T05:00:50.875Z,12.89
2018-06-12T05:03:18.566Z,12.73
2018-06-12T05:05:46.481Z,12.78
2018-06-12T05:08:14.418Z,12.89
2018-06-12T05:10:42.127Z,12.85
2018-06-12T05:13:09.786Z,12.81
2018-06-12T05:15:37.487Z,12.68
2018-06-12T05:18:05.251Z,12.81
2018-06-12T05:20:32.933Z,13.02
2018-06-12T05:23:00.626Z,13.49
2018-06-12T05:25:28.317Z,13.70
2018-06-12T05:27:56.042Z,13.66
2018-06-12T05:30:23.734Z,13.19
2018-06-12T05:32:51.418Z,13.34
2018-06-12T05:35:19.099Z,13.15
2018-06-12T05:37:46.822Z,12.93
2018-06-12T05:40:14.478Z,13.10
2018-06-12T05:42:42.301Z,13.20
2018-06-12T05:45:09.981Z,13.01
2018-06-12T05:47:37.658Z,13.29
2018-06-12T05:50:05.338Z,13.15
2018-06-12T05:52:33.033Z,13.25
2018-06-12T05:55:00.716Z,13.32
2018-06-12T05:57:28.473Z,13.30
2018-06-12T05:59:56.198Z,13.51
2018-06-12T06:02:23.956Z,13.30
2018-06-12T06:04:51.626Z,13.33
2018-06-12T06:07:19.338Z,13.38
2018-06-12T06:09:47.016Z,13.56
2018-06-12T06:12:14.679Z,13.49
2018-06-12T06:14:42.363Z,13.28
2018-06-12T06:17:10.068Z,13.43
2018-06-12T06:19:37.816Z,13.54
2018-06-12T06:22:05.547Z,13.55
2018-06-12T06:24:33.337Z,13.67
2018-06-12T06:27:01.018Z,13.77
2018-06-12T06:29:28.881Z,13.53
2018-06-12T06:31:56.596Z,13.52
2018-06-12T06:34:24.265Z,13.59
2018-06-12T06:36:51.962Z,13.69
2018-06-12T06:39:19.673Z,13.88
2018-06-12T06:41:47.368Z,13.87
2018-06-12T06:44:15.078Z,13.89
2018-06-12T06:46:42.800Z,13.90
2018-06-12T06:49:10.510Z,13.73
2018-06-12T06:51:38.254Z,13.70
2018-06-12T06:54:05.982Z,13.68
2018-06-12T06:56:33.693Z,13.80
2018-06-12T06:59:01.402Z,13.94
2018-06-12T07:01:29.107Z,13.82
2018-06-12T07:03:56.793Z,13.77
2018-06-12T07:06:24.528Z,13.77
2018-06-12T07:08:52.217Z,13.85
2018-06-12T07:11:19.941Z,13.85
2018-06-12T07:13:47.812Z,13.88
2018-06-12T07:16:15.515Z,13.90
2018-06-12T07:18:43.233Z,13.97
2018-06-12T07:21:21.989Z,14.11
2018-06-12T07:23:49.706Z,14.21
2018-06-12T07:26:17.444Z,14.11
2018-06-12T07:28:45.237Z,14.26
2018-06-12T07:31:12.933Z,14.42
2018-06-12T07:33:40.699Z,14.43
2018-06-12T07:36:08.462Z,14.51
2018-06-12T07:38:36.177Z,14.59
2018-06-12T07:41:03.990Z,14.63
2018-06-12T07:43:31.789Z,14.58
2018-06-12T07:45:59.548Z,14.47
2018-06-12T07:48:27.275Z,14.43
2018-06-12T07:50:55.005Z,14.46
2018-06-12T07:53:22.697Z,14.60
2018-06-12T07:55:50.393Z,14.64
2018-06-12T07:58:18.124Z,14.72
2018-06-12T08:00:45.810Z,14.71
2018-06-12T08:03:13.503Z,14.71
2018-06-12T08:05:41.238Z,14.80
2018-06-12T08:08:08.944Z,14.89
2018-06-12T08:10:36.718Z,14.98
2018-06-12T08:13:04.482Z,15.01
2018-06-12T08:15:32.281Z,14.80
2018-06-12T08:17:59.989Z,14.85
2018-06-12T08:20:27.712Z,14.96
2018-06-12T08:22:55.387Z,14.97
2018-06-12T08:25:23.078Z,15.11
2018-06-12T08:27:50.836Z,15.21
2018-06-12T08:30:18.602Z,15.24
2018-06-12T08:32:46.262Z,15.30
2018-06-12T08:35:13.978Z,15.25
2018-06-12T08:37:41.662Z,15.35
2018-06-12T08:40:09.389Z,15.43
2018-06-12T08:42:37.813Z,15.47
2018-06-12T08:45:05.534Z,15.50
2018-06-12T08:47:33.338Z,15.59
2018-06-12T08:50:01.050Z,15.53
2018-06-12T08:52:28.735Z,15.59
2018-06-12T08:54:56.433Z,15.53
2018-06-12T08:57:24.154Z,15.67
2018-06-12T08:59:51.853Z,15.74
2018-06-12T09:02:19.887Z,15.78
2018-06-12T09:04:47.610Z,15.63
2018-06-12T09:07:15.313Z,15.71
2018-06-12T09:09:43.017Z,15.75
2018-06-12T09:12:10.713Z,15.78
2018-06-12T09:14:38.448Z,15.95
2018-06-12T09:17:06.153Z,15.98
2018-06-12T09:19:33.865Z,16.03
2018-06-12T09:22:01.565Z,15.90
2018-06-12T09:24:29.267Z,15.97
2018-06-12T09:26:56.999Z,16.05
2018-06-12T09:29:24.687Z,16.01
2018-06-12T09:31:52.383Z,16.14
2018-06-12T09:34:20.078Z,16.16
2018-06-12T09:36:47.808Z,16.07
2018-06-12T09:39:15.516Z,16.03
2018-06-12T09:41:43.252Z,16.19
2018-06-12T09:44:11.082Z,16.29
2018-06-12T09:46:38.850Z,16.29
2018-06-12T09:49:06.634Z,16.29
2018-06-12T09:51:34.329Z,16.25
2018-06-12T09:54:02.050Z,16.46
2018-06-12T09:56:29.790Z,16.43
2018-06-12T09:58:57.474Z,16.35
2018-06-12T10:01:25.176Z,16.40
2018-06-12T10:03:53.253Z,16.39
2018-06-12T10:06:20.913Z,16.55
2018-06-12T10:08:48.563Z,16.46
2018-06-12T10:11:16.247Z,16.41
2018-06-12T10:13:43.929Z,16.49
2018-06-12T10:16:11.613Z,16.50
2018-06-12T10:18:39.353Z,16.51
2018-06-12T10:21:07.073Z,16.46
2018-06-12T10:23:34.786Z,16.64
2018-06-12T10:26:02.526Z,16.87
2018-06-12T10:28:30.186Z,16.78
2018-06-12T10:30:57.877Z,16.70
2018-06-12T10:33:25.583Z,16.67
2018-06-12T10:35:53.235Z,16.70
2018-06-12T10:38:20.915Z,16.72
2018-06-12T10:40:48.624Z,16.76
2018-06-12T10:43:16.321Z,16.93
2018-06-12T10:45:43.998Z,16.98
2018-06-12T10:48:11.706Z,16.88
2018-06-12T10:50:39.362Z,17.00
2018-06-12T10:53:07.078Z,17.11
2018-06-12T10:55:34.762Z,17.19
2018-06-12T10:58:02.440Z,17.13
2018-06-12T11:00:30.117Z,17.21
2018-06-12T11:02:57.843Z,17.35
2018-06-12T11:05:28.610Z,17.21
2018-06-12T11:07:56.305Z,17.13
2018-06-12T11:10:23.982Z,17.26
2018-06-12T11:12:51.649Z,17.21
2018-06-12T11:15:19.516Z,17.08
2018-06-12T11:17:47.205Z,17.06
2018-06-12T11:20:14.877Z,16.94
2018-06-12T11:22:42.534Z,16.97
2018-06-12T11:25:10.210Z,16.97
2018-06-12T11:27:37.873Z,16.86
2018-06-12T11:30:05.604Z,16.89
2018-06-12T11:32:33.289Z,16.99
2018-06-12T11:35:00.983Z,17.05
2018-06-12T11:37:28.669Z,16.96
2018-06-12T11:39:56.360Z,16.98
2018-06-12T11:42:24.006Z,17.09
2018-06-12T11:44:51.690Z,17.04
2018-06-12T11:47:19.490Z,16.90
2018-06-12T11:49:47.118Z,16.99
2018-06-12T11:52:14.770Z,16.90
2018-06-12T11:54:42.459Z,17.05
2018-06-12T11:57:10.242Z,17.28
2018-06-12T11:59:37.887Z,17.15
2018-06-12T12:02:05.729Z,17.10
2018-06-12T12:04:33.389Z,17.10
2018-06-12T12:07:01.151Z,17.09
2018-06-12T12:09:28.817Z,17.01
2018-06-12T12:11:56.520Z,17.15
2018-06-12T12:14:24.198Z,17.00
2018-06-12T12:16:51.922Z,16.83
2018-06-12T12:19:19.587Z,16.88
2018-06-12T12:21:47.242Z,16.83
2018-06-12T12:24:14.934Z,16.76
2018-06-12T12:26:42.610Z,16.95
2018-06-12T12:29:10.312Z,17.02
2018-06-12T12:31:38.093Z,16.76
2018-06-12T12:34:05.813Z,16.64
2018-06-12T12:36:33.519Z,16.79
2018-06-12T12:39:01.210Z,16.76
2018-06-12T12:41:28.898Z,16.91
2018-06-12T12:43:56.608Z,16.87
2018-06-12T12:46:24.362Z,16.95
2018-06-12T12:48:52.060Z,17.00
2018-06-12T12:51:19.725Z,16.95
2018-06-12T12:53:47.431Z,16.82
2018-06-12T12:56:15.121Z,16.97
2018-06-12T12:58:42.837Z,16.81
2018-06-12T13:01:10.534Z,16.82
2018-06-12T13:03:38.201Z,16.89
2018-06-12T13:06:05.998Z,17.02
2018-06-12T13:08:33.790Z,17.05
2018-06-12T13:11:01.466Z,17.02
2018-06-12T13:13:29.118Z,17.02
2018-06-12T13:15:56.840Z,17.03
2018-06-12T13:18:24.554Z,16.99
2018-06-12T13:20:52.244Z,16.99
2018-06-12T13:23:19.925Z,17.06
2018-06-12T13:25:47.613Z,17.12
2018-06-12T13:28:15.277Z,17.17
2018-06-12T13:30:42.973Z,17.08
2018-06-12T13:33:11.081Z,16.83
2018-06-12T13:35:38.773Z,17.24
2018-06-12T13:38:06.492Z,17.25
2018-06-12T13:40:34.158Z,17.32
2018-06-12T13:43:01.841Z,17.21
2018-06-12T13:45:29.522Z,17.16
2018-06-12T13:47:57.157Z,17.12
2018-06-12T13:50:24.801Z,17.17
2018-06-12T13:52:52.487Z,17.16
2018-06-12T13:55:20.203Z,17.16
2018-06-12T13:57:48.054Z,17.24
2018-06-12T14:00:15.766Z,16.91
2018-06-12T14:02:43.430Z,17.03
2018-06-12T14:05:11.086Z,17.20
2018-06-12T14:07:38.816Z,16.92
2018-06-12T14:10:06.490Z,16.89
2018-06-12T14:12:34.214Z,16.76
2018-06-12T14:15:01.940Z,16.98
2018-06-12T14:17:29.623Z,17.13
2018-06-12T14:19:57.350Z,17.21
2018-06-12T14:22:25.030Z,17.31
2018-06-12T14:24:52.697Z,17.25
2018-06-12T14:27:20.346Z,17.27
2018-06-12T14:29:48.101Z,17.29
2018-06-12T14:32:15.769Z,17.05
2018-06-12T14:34:43.446Z,17.08
2018-06-12T14:37:11.170Z,17.07
2018-06-12T14:39:38.855Z,17.05
2018-06-12T14:42:06.517Z,17.22
2018-06-12T14:44:34.190Z,17.25
2018-06-12T14:47:01.843Z,17.37
2018-06-12T14:49:29.695Z,17.50
2018-06-12T14:51:57.519Z,17.51
2018-06-12T14:54:25.213Z,17.47
2018-06-12T14:56:52.934Z,17.42
2018-06-12T14:59:20.634Z,17.51
2018-06-12T15:01:48.394Z,17.36
2018-06-12T15:04:16.110Z,17.35
2018-06-12T15:06:43.786Z,17.46
2018-06-12T15:09:11.521Z,17.29
2018-06-12T15:11:39.186Z,17.26
2018-06-12T15:14:06.916Z,17.22
2018-06-12T15:16:34.628Z,17.07
2018-06-12T15:19:02.376Z,17.07
2018-06-12T15:21:30.070Z,16.88
2018-06-12T15:23:57.737Z,16.87
2018-06-12T15:26:25.402Z,17.01
2018-06-12T15:28:53.105Z,17.02
2018-06-12T15:31:20.782Z,16.90
2018-06-12T15:33:48.437Z,16.87
2018-06-12T15:36:16.118Z,16.87
2018-06-12T15:38:43.833Z,16.80
2018-06-12T15:41:11.556Z,16.77
2018-06-12T15:43:39.420Z,16.76
2018-06-12T15:46:07.238Z,16.90
2018-06-12T15:48:35.038Z,16.83
2018-06-12T15:51:02.921Z,16.99
2018-06-12T15:53:30.810Z,16.92
2018-06-12T15:55:58.585Z,16.99
2018-06-12T15:58:26.357Z,17.05
2018-06-12T16:00:54.148Z,17.00
2018-06-12T16:03:21.805Z,16.94
2018-06-12T16:05:49.533Z,16.62
2018-06-12T16:08:17.215Z,16.93
2018-06-12T16:10:44.921Z,16.87
2018-06-12T16:13:12.681Z,16.78
2018-06-12T16:15:40.392Z,16.75
2018-06-12T16:18:08.083Z,16.76
2018-06-12T16:20:35.906Z,16.88
2018-06-12T16:23:03.621Z,16.82
2018-06-12T16:25:31.430Z,16.64
2018-06-12T16:27:59.179Z,16.59
2018-06-12T16:30:26.910Z,16.62
2018-06-12T16:32:54.716Z,16.55
2018-06-12T16:35:22.541Z,16.48
2018-06-12T16:37:50.346Z,16.73
2018-06-12T16:40:18.198Z,16.68
2018-06-12T16:42:46.001Z,16.70
2018-06-12T16:45:13.797Z,16.89
2018-06-12T16:47:41.498Z,16.64
2018-06-12T16:50:09.395Z,16.73
2018-06-12T16:52:37.090Z,16.64
2018-06-12T16:55:04.887Z,16.68
2018-06-12T16:57:32.769Z,16.67
2018-06-12T17:00:00.490Z,16.59
2018-06-12T17:02:28.179Z,16.59
2018-06-12T17:04:55.942Z,16.60
2018-06-12T17:07:23.630Z,16.57
2018-06-12T17:09:51.321Z,16.60
2018-06-12T17:12:19.197Z,16.47
2018-06-12T17:14:46.889Z,16.46
2018-06-12T17:17:14.547Z,16.52
2018-06-12T17:19:42.262Z,16.52
2018-06-12T17:22:09.946Z,16.55
2018-06-12T17:24:37.630Z,16.76
2018-06-12T17:27:05.329Z,16.49
2018-06-12T17:29:33.025Z,16.53
2018-06-12T17:32:00.710Z,16.50
2018-06-12T17:34:28.452Z,16.63
2018-06-12T17:36:56.141Z,16.44
2018-06-12T17:39:23.805Z,16.50
2018-06-12T17:41:51.619Z,16.50
2018-06-12T17:44:19.306Z,16.42
2018-06-12T17:46:46.953Z,16.47
2018-06-12T17:49:14.673Z,16.46
2018-06-12T17:51:42.369Z,16.38
2018-06-12T17:54:10.026Z,16.31
2018-06-12T17:56:37.754Z,16.28
2018-06-12T17:59:05.402Z,16.31
2018-06-12T18:01:33.083Z,16.26
2018-06-12T18:04:00.894Z,16.31
2018-06-12T18:06:28.534Z,16.28
2018-06-12T18:08:56.186Z,16.24
2018-06-12T18:11:23.870Z,16.06
2018-06-12T18:13:51.583Z,16.21
2018-06-12T18:16:19.246Z,16.12
2018-06-12T18:18:46.932Z,16.11
2018-06-12T18:21:14.597Z,16.01
2018-06-12T18:23:42.282Z,16.00
2018-06-12T18:26:10.015Z,16.01
2018-06-12T18:28:37.774Z,15.91
2018-06-12T18:31:05.434Z,15.87
2018-06-12T18:33:33.145Z,15.95
2018-06-12T18:36:00.808Z,15.96
2018-06-12T18:38:28.493Z,15.87
2018-06-12T18:40:56.213Z,15.79
2018-06-12T18:43:23.869Z,15.85
2018-06-12T18:45:51.546Z,15.75
2018-06-12T18:48:19.259Z,15.89
2018-06-12T18:50:46.947Z,15.79
2018-06-12T18:53:14.654Z,15.93
2018-06-12T18:55:42.462Z,15.90
2018-06-12T18:58:10.149Z,15.92
2018-06-12T19:00:37.822Z,15.81
2018-06-12T19:03:05.541Z,15.76
2018-06-12T19:05:33.239Z,15.92
2018-06-12T19:08:00.974Z,15.81
2018-06-12T19:10:28.687Z,15.82
2018-06-12T19:12:56.497Z,15.94
2018-06-12T19:15:24.154Z,15.79
2018-06-12T19:17:51.853Z,15.82
2018-06-12T19:20:19.513Z,16.07
2018-06-12T19:22:47.223Z,15.70
2018-06-12T19:25:14.926Z,15.64
2018-06-12T19:27:42.590Z,15.59
2018-06-12T19:30:10.278Z,15.57
2018-06-12T19:32:37.970Z,15.55
2018-06-12T19:35:05.674Z,15.60
2018-06-12T19:37:33.337Z,15.54
2018-06-12T19:40:01.029Z,15.59
2018-06-12T19:42:28.670Z,15.54
2018-06-12T19:44:56.325Z,15.63
2018-06-12T19:47:24.034Z,15.50
2018-06-12T19:49:51.682Z,15.47
2018-06-12T19:52:19.454Z,15.70
2018-06-12T19:54:47.209Z,15.73
2018-06-12T19:57:14.886Z,15.77
2018-06-12T19:59:42.546Z,15.73
2018-06-12T20:02:10.273Z,15.74
2018-06-12T20:04:37.931Z,15.82
2018-06-12T20:07:05.673Z,15.77
2018-06-12T20:09:33.373Z,15.61
2018-06-12T20:12:01.038Z,15.72
2018-06-12T20:14:28.721Z,15.73
2018-06-12T20:16:56.390Z,15.58
2018-06-12T20:19:24.145Z,15.66
2018-06-12T20:21:51.873Z,15.57
2018-06-12T20:24:19.585Z,15.40
2018-06-12T20:26:47.658Z,15.57
2018-06-12T20:29:15.375Z,15.44
2018-06-12T20:31:43.046Z,15.43
2018-06-12T20:34:10.725Z,15.49
2018-06-12T20:36:38.372Z,15.41
2018-06-12T20:39:08.243Z,15.39
2018-06-12T20:41:36.374Z,15.48
2018-06-12T20:44:04.358Z,15.27
2018-06-12T20:46:32.040Z,15.36
2018-06-12T20:48:59.718Z,15.34
2018-06-12T20:51:27.775Z,15.33
2018-06-12T20:53:56.090Z,15.35
2018-06-12T20:56:23.752Z,15.25
2018-06-12T20:58:52.314Z,15.35
2018-06-12T21:01:20.070Z,15.20
2018-06-12T21:03:48.250Z,15.20
2018-06-12T21:06:15.934Z,15.02
2018-06-12T21:08:43.637Z,15.07
2018-06-12T21:11:11.312Z,14.99
2018-06-12T21:13:39.254Z,14.93
2018-06-12T21:16:06.966Z,14.71
2018-06-12T21:18:34.650Z,14.94
2018-06-12T21:21:02.523Z,14.82
2018-06-12T21:23:30.498Z,14.58
2018-06-12T21:25:59.422Z,14.88
2018-06-12T21:28:27.092Z,14.90
2018-06-12T21:30:54.830Z,14.50
2018-06-12T21:33:22.479Z,14.66
2018-06-12T21:35:50.215Z,14.67
2018-06-12T21:38:18.349Z,14.54
2018-06-12T21:40:46.014Z,14.68
2018-06-12T21:43:13.665Z,14.64
2018-06-12T21:45:41.495Z,14.40
2018-06-12T21:48:10.371Z,14.42
2018-06-12T21:50:38.553Z,14.41
2018-06-12T21:53:06.250Z,14.46
2018-06-12T21:55:33.917Z,14.34
2018-06-12T21:58:01.653Z,14.24
2018-06-12T22:00:32.291Z,14.24
2018-06-12T22:03:00.658Z,14.40
2018-06-12T22:05:28.502Z,14.01
2018-06-12T22:07:56.263Z,14.29
2018-06-12T22:10:24.170Z,13.98
2018-06-12T22:12:52.030Z,14.12
2018-06-12T22:15:19.686Z,14.16
2018-06-12T22:17:46.977Z,13.94
2018-06-12T22:20:15.004Z,13.81
2018-06-12T22:22:42.674Z,14.05
2018-06-12T22:25:10.358Z,13.90
2018-06-12T22:27:38.034Z,13.97
2018-06-12T22:30:05.798Z,14.04
2018-06-12T22:32:33.478Z,13.93
2018-06-12T22:35:01.144Z,13.86
2018-06-12T22:37:28.865Z,13.82
2018-06-12T22:39:56.502Z,13.47
2018-06-12T22:42:24.157Z,13.74
2018-06-12T22:44:51.857Z,13.84
2018-06-12T22:47:19.540Z,13.62
2018-06-12T22:49:47.201Z,13.65
2018-06-12T22:52:14.899Z,13.51
2018-06-12T22:54:42.648Z,13.60
2018-06-12T22:57:10.339Z,13.49
2018-06-12T22:59:38.033Z,13.13
2018-06-12T23:02:06.051Z,13.35
2018-06-12T23:04:33.714Z,13.46
2018-06-12T23:07:01.455Z,13.40
2018-06-12T23:09:29.125Z,13.39
2018-06-12T23:11:56.765Z,13.25
2018-06-12T23:14:24.465Z,13.30
2018-06-12T23:16:52.159Z,13.18
2018-06-12T23:19:19.871Z,13.09
2018-06-12T23:21:58.118Z,13.30
2018-06-12T23:24:25.911Z,13.01
2018-06-12T23:26:53.578Z,13.04
2018-06-12T23:29:21.296Z,13.17
2018-06-12T23:31:48.978Z,13.03
2018-06-12T23:34:16.663Z,13.12
2018-06-12T23:36:44.389Z,12.93
2018-06-12T23:39:12.072Z,12.80
2018-06-12T23:41:39.753Z,12.98
2018-06-12T23:44:07.430Z,12.85
2018-06-12T23:46:35.073Z,12.88
2018-06-12T23:49:02.742Z,12.61
2018-06-12T23:51:30.409Z,12.74
2018-06-12T23:53:58.093Z,12.69
2018-06-12T23:56:25.828Z,12.57
2018-06-12T23:58:53.593Z,12.34
